Time;durP1;ratioP1;P1;durP2;ratioP2;P2;SDS_P1;SDS_P2;PMS_P1;PMS_P2;Temp;Humidity;BMP_temperature;BMP_pressure;BME280_temperature;BME280_humidity;BME280_pressure;Samples;Min_cycle;Max_cycle;Signal;HPM_P1;HPM_P2
2022/09/16 00:02:01;;;;;;;2.97;1.27;;;;;;;24.13;45.44;101016.59;5057262;28;20040;-38
2022/09/16 00:04:27;;;;;;;2.50;1.17;;;;;;;24.12;46.08;101023.88;5057765;28;20114;-38
2022/09/16 00:06:52;;;;;;;2.17;1.10;;;;;;;24.08;45.53;101016.22;5056383;28;21349;-35
2022/09/16 00:09:18;;;;;;;2.03;1.10;;;;;;;24.07;45.65;101018.09;5057256;28;20333;-38
2022/09/16 00:11:44;;;;;;;2.92;1.30;;;;;;;24.05;45.75;101020.06;5056569;28;20140;-36
2022/09/16 00:14:09;;;;;;;2.75;1.25;;;;;;;24.03;46.16;101025.66;5057149;28;20046;-36
2022/09/16 00:16:35;;;;;;;3.03;1.27;;;;;;;24.04;45.71;101032.75;5056311;28;20039;-38
2022/09/16 00:19:02;;;;;;;2.88;1.30;;;;;;;24.01;45.92;101035.75;5048220;28;20177;-38
2022/09/16 00:21:29;;;;;;;3.70;1.20;;;;;;;24.01;45.60;101026.81;5055857;28;20036;-38
2022/09/16 00:23:55;;;;;;;3.00;1.00;;;;;;;24.01;45.63;101027.63;5055331;28;20039;-39
2022/09/16 00:26:20;;;;;;;2.45;1.30;;;;;;;24.02;46.06;101023.09;5053642;28;20032;-36
2022/09/16 00:28:49;;;;;;;2.42;1.10;;;;;;;23.99;45.86;101032.38;5055605;28;20043;-35
2022/09/16 00:31:16;;;;;;;1.88;1.02;;;;;;;24.02;45.99;101025.81;5055624;28;20507;-35
2022/09/16 00:33:41;;;;;;;1.85;1.02;;;;;;;24.02;45.96;101028.50;5054490;28;20059;-38
2022/09/16 00:36:11;;;;;;;1.73;1.00;;;;;;;23.99;45.54;101024.25;5030331;28;20395;-39
2022/09/16 00:38:37;;;;;;;3.25;1.17;;;;;;;24.00;45.61;101027.81;5055655;28;20491;-38
2022/09/16 00:41:04;;;;;;;1.20;1.08;;;;;;;23.97;46.15;101028.97;5054545;28;20032;-38
2022/09/16 00:44:02;;;;;;;2.22;1.15;;;;;;;23.97;45.75;101030.81;5050380;28;21351;-35
2022/09/16 00:46:42;;;;;;;3.60;1.33;;;;;;;23.95;45.62;101013.88;5051060;28;20085;-35
2022/09/16 00:49:24;;;;;;;1.98;0.93;;;;;;;23.94;45.84;101004.06;5053719;28;20476;-36
2022/09/16 00:51:55;;;;;;;2.67;1.17;;;;;;;23.92;45.66;101012.34;5052375;28;20446;-35
2022/09/16 00:54:21;;;;;;;3.05;1.08;;;;;;;23.90;45.97;101019.69;5053261;28;20031;-38
2022/09/16 00:56:50;;;;;;;3.00;1.30;;;;;;;23.88;45.96;101021.72;5054402;28;20047;-39
2022/09/16 00:59:30;;;;;;;1.02;0.80;;;;;;;23.90;45.74;101025.13;5055575;28;20035;-35
2022/09/16 01:01:59;;;;;;;2.58;1.10;;;;;;;23.90;46.10;101035.94;5055775;28;20388;-35
2022/09/16 01:04:38;;;;;;;2.25;1.20;;;;;;;23.87;45.99;101049.78;5044446;28;20584;-44
2022/09/16 01:07:03;;;;;;;2.47;1.08;;;;;;;23.87;46.05;101044.34;5070545;27;20396;-44
2022/09/16 01:09:30;;;;;;;1.92;1.10;;;;;;;23.83;45.87;101046.50;5055211;28;20098;-42
2022/09/16 01:11:55;;;;;;;2.22;1.00;;;;;;;23.81;46.10;101034.13;5056144;28;20032;-43
2022/09/16 01:17:27;;;;;;;2.97;1.10;;;;;;;23.78;45.88;101019.06;5055355;28;20645;-42
2022/09/16 01:20:11;;;;;;;2.85;1.10;;;;;;;23.78;45.90;101039.88;5055931;28;21523;-42
2022/09/16 01:22:45;;;;;;;2.63;1.10;;;;;;;23.79;45.64;101050.53;5055174;28;20615;-42
2022/09/16 01:25:23;;;;;;;2.97;0.88;;;;;;;23.73;46.14;101040.31;5054670;28;20039;-44
2022/09/16 01:28:26;;;;;;;1.27;0.75;;;;;;;23.76;45.86;101044.56;5054384;28;21989;-45
2022/09/16 01:31:11;;;;;;;1.83;0.90;;;;;;;23.78;46.04;101039.88;5055466;28;20029;-45
2022/09/16 01:33:42;;;;;;;2.75;0.98;;;;;;;23.78;45.97;101034.47;5055313;28;20590;-43
2022/09/16 01:36:07;;;;;;;;;;;;;;;23.75;45.89;101034.75;5056461;28;20145;-45
2022/09/16 01:38:45;;;;;;;3.10;1.00;;;;;;;23.78;46.11;101031.75;5053483;28;20216;-44
2022/09/16 01:41:28;;;;;;;1.58;0.90;;;;;;;23.73;45.77;101035.75;5054042;28;20293;-43
2022/09/16 01:44:10;;;;;;;2.22;0.95;;;;;;;23.70;46.26;101030.63;5054885;28;20039;-45
2022/09/16 01:46:47;;;;;;;2.25;0.80;;;;;;;23.68;45.92;101040.78;5055012;28;20051;-45
2022/09/16 01:49:15;;;;;;;2.40;0.90;;;;;;;23.69;46.35;101036.22;5054277;28;20447;-45
2022/09/16 01:52:05;;;;;;;2.55;0.90;;;;;;;23.69;45.73;101038.91;5053899;28;20032;-44
2022/09/16 01:54:41;;;;;;;2.20;0.90;;;;;;;23.63;45.92;101037.66;5054835;28;20480;-42
2022/09/16 01:57:17;;;;;;;2.10;0.90;;;;;;;23.63;46.03;101034.09;5049237;28;20032;-42
2022/09/16 01:59:53;;;;;;;2.55;1.10;;;;;;;23.62;46.06;101038.66;5055037;28;20521;-43
2022/09/16 02:02:30;;;;;;;1.38;0.75;;;;;;;23.62;46.33;101033.25;5054662;28;20046;-42
2022/09/16 02:05:00;;;;;;;2.08;0.88;;;;;;;23.62;46.22;101032.38;5054018;28;20989;-43
2022/09/16 02:07:34;;;;;;;2.78;0.88;;;;;;;23.63;46.13;101036.81;5055292;28;20028;-44
2022/09/16 02:10:51;;;;;;;2.03;0.95;;;;;;;23.60;46.48;101037.94;5055106;28;20086;-42
2022/09/16 02:13:40;;;;;;;2.50;1.20;;;;;;;23.62;46.24;101035.09;5026305;28;20063;-43
2022/09/16 02:16:31;;;;;;;1.42;0.75;;;;;;;23.58;46.31;101047.22;5055652;28;20067;-41
2022/09/16 02:19:01;;;;;;;1.13;0.70;;;;;;;23.59;46.18;101055.16;5032686;28;20038;-44
2022/09/16 02:21:30;;;;;;;1.42;0.75;;;;;;;23.58;46.04;101047.22;5055593;28;20115;-43
2022/09/16 02:24:00;;;;;;;2.00;0.90;;;;;;;23.55;46.46;101042.94;5054913;28;20037;-44
2022/09/16 02:26:32;;;;;;;2.05;0.77;;;;;;;23.53;46.35;101039.53;5053932;28;20024;-44
2022/09/16 02:28:59;;;;;;;3.03;1.08;;;;;;;23.54;46.27;101044.81;5055252;28;20029;-44
2022/09/16 02:31:31;;;;;;;1.90;0.88;;;;;;;23.53;46.41;101053.91;5054626;28;20060;-44
2022/09/16 02:34:01;;;;;;;2.85;1.00;;;;;;;23.51;46.50;101042.41;5054277;28;20055;-44
2022/09/16 02:36:29;;;;;;;2.08;0.90;;;;;;;23.54;46.72;101042.13;5070071;28;20476;-44
2022/09/16 02:39:01;;;;;;;1.85;0.95;;;;;;;23.52;46.63;101037.84;5053973;28;20031;-42
2022/09/16 02:41:27;;;;;;;3.22;0.95;;;;;;;23.51;46.50;101031.59;5053644;28;20440;-43
2022/09/16 02:43:53;;;;;;;3.25;0.85;;;;;;;23.50;46.73;101037.97;5054763;28;20117;-41
2022/09/16 02:46:33;;;;;;;3.00;1.00;;;;;;;23.52;46.68;101051.38;5052987;28;20031;-42
2022/09/16 02:49:21;;;;;;;2.87;1.20;;;;;;;23.53;46.59;101058.47;5054091;28;20041;-41
2022/09/16 02:51:49;;;;;;;2.50;0.90;;;;;;;23.49;46.83;101049.81;5054538;28;20587;-42
2022/09/16 02:54:39;;;;;;;1.58;0.80;;;;;;;23.47;46.56;101038.28;5054640;28;20040;-44
2022/09/16 02:57:05;;;;;;;1.73;0.80;;;;;;;23.48;46.78;101039.13;5054251;28;20028;-43
2022/09/16 02:59:31;;;;;;;1.50;0.73;;;;;;;23.46;46.90;101043.84;5052684;28;20027;-43
2022/09/16 03:01:57;;;;;;;2.28;0.82;;;;;;;23.43;46.85;101033.31;5053879;28;20415;-44
2022/09/16 03:04:23;;;;;;;3.17;0.95;;;;;;;23.44;46.61;101032.31;5054086;28;20260;-42
2022/09/16 03:06:48;;;;;;;1.58;0.85;;;;;;;23.44;46.78;101032.31;5053686;28;20036;-42
2022/09/16 03:09:16;;;;;;;2.25;0.90;;;;;;;23.43;46.46;101026.09;5056857;28;20268;-43
2022/09/16 03:12:09;;;;;;;3.80;1.00;;;;;;;23.44;46.59;101018.81;5072412;27;20031;-46
2022/09/16 03:14:51;;;;;;;2.28;0.80;;;;;;;23.41;47.03;101028.06;5072865;27;20051;-43
2022/09/16 03:17:34;;;;;;;1.60;0.73;;;;;;;23.40;46.62;101015.56;5057131;28;20029;-43
2022/09/16 03:20:21;;;;;;;2.85;0.90;;;;;;;23.38;46.98;101017.56;5057211;28;20382;-42
2022/09/16 03:22:52;;;;;;;2.58;1.08;;;;;;;23.35;46.84;101016.03;5058569;28;20044;-41
2022/09/16 03:25:53;;;;;;;1.75;0.70;;;;;;;23.32;46.81;101018.16;5057307;28;20119;-41
2022/09/16 03:28:36;;;;;;;1.60;0.80;;;;;;;23.34;47.11;101010.78;5009277;28;20157;-42
2022/09/16 03:31:09;;;;;;;2.05;0.85;;;;;;;23.35;46.73;101015.16;5057268;28;20040;-41
2022/09/16 03:33:48;;;;;;;3.03;0.90;;;;;;;23.34;47.06;101016.19;5057087;28;20056;-41
2022/09/16 03:36:18;;;;;;;1.73;0.70;;;;;;;23.29;46.66;101011.19;5056890;28;20437;-42
2022/09/16 03:38:43;;;;;;;2.05;0.65;;;;;;;23.29;47.04;101015.75;5056883;27;20806;-41
2022/09/16 03:41:09;;;;;;;1.75;0.80;;;;;;;23.30;46.75;101025.56;5057816;28;20040;-43
2022/09/16 03:43:35;;;;;;;2.33;0.80;;;;;;;23.24;46.75;101027.84;5058457;28;20509;-43
2022/09/16 03:46:01;;;;;;;2.17;1.00;;;;;;;23.11;47.14;101030.00;5055689;28;20075;-43
2022/09/16 03:48:26;;;;;;;1.70;0.70;;;;;;;23.08;47.32;101032.97;5057420;28;20073;-41
2022/09/16 03:50:52;;;;;;;1.65;0.60;;;;;;;23.05;47.29;101033.28;5057076;28;20596;-43
2022/09/16 03:53:18;;;;;;;3.95;1.05;;;;;;;23.00;47.39;101033.72;5057356;28;20321;-41
2022/09/16 03:55:43;;;;;;;3.45;1.00;;;;;;;22.99;47.58;101047.34;5056671;28;20044;-43
2022/09/16 03:58:09;;;;;;;3.28;0.90;;;;;;;22.98;47.72;101030.31;5056757;28;20519;-41
2022/09/16 04:00:34;;;;;;;2.10;0.70;;;;;;;23.00;47.82;101027.47;5056069;28;20134;-41
2022/09/16 04:03:00;;;;;;;2.72;1.00;;;;;;;22.95;47.67;101025.19;5056823;28;20933;-41
2022/09/16 04:05:25;;;;;;;1.67;0.90;;;;;;;22.94;47.63;101014.53;5055575;28;20071;-41
2022/09/16 04:07:51;;;;;;;2.20;0.77;;;;;;;22.96;47.81;101020.66;5057181;28;20027;-41
2022/09/16 04:10:17;;;;;;;1.75;0.95;;;;;;;22.97;47.60;101017.81;5056085;28;20760;-42
2022/09/16 04:12:42;;;;;;;2.85;0.70;;;;;;;22.98;47.60;101015.94;5057270;28;20114;-41
2022/09/16 04:15:08;;;;;;;2.33;0.98;;;;;;;22.95;47.88;101011.69;5056475;28;20037;-42
2022/09/16 04:17:34;;;;;;;2.33;0.93;;;;;;;22.95;47.95;101009.00;5056817;28;20075;-41
2022/09/16 04:19:59;;;;;;;2.92;1.10;;;;;;;22.97;47.81;101015.09;5055475;28;20456;-44
2022/09/16 04:22:29;;;;;;;2.05;0.95;;;;;;;22.97;47.69;101011.53;5072271;27;20139;-44
2022/09/16 04:24:55;;;;;;;2.55;1.00;;;;;;;22.98;47.76;101000.59;5056586;28;20423;-45
2022/09/16 04:27:20;;;;;;;1.95;0.93;;;;;;;22.98;47.73;101008.72;5037494;28;20305;-45
2022/09/16 04:29:46;;;;;;;2.80;1.20;;;;;;;22.95;47.74;101006.28;5055279;28;20031;-44
2022/09/16 04:32:11;;;;;;;1.55;1.08;;;;;;;22.93;47.98;101005.59;5056387;28;20168;-42
2022/09/16 04:34:37;;;;;;;3.95;1.00;;;;;;;22.94;47.74;101011.84;5057270;28;20055;-42
2022/09/16 04:37:03;;;;;;;2.15;1.10;;;;;;;22.90;48.15;101006.75;5051243;28;20771;-44
2022/09/16 04:39:28;;;;;;;2.50;1.20;;;;;;;22.95;47.69;101002.75;5055927;28;20753;-43
2022/09/16 04:41:53;;;;;;;2.50;1.10;;;;;;;22.95;47.87;101005.44;5055878;28;20039;-44
2022/09/16 04:44:19;;;;;;;3.13;1.10;;;;;;;22.95;47.91;101003.59;5056076;28;20043;-42
2022/09/16 04:46:44;;;;;;;3.67;0.77;;;;;;;22.96;48.00;101005.28;5056269;28;20121;-42
2022/09/16 04:49:11;;;;;;;1.75;0.80;;;;;;;22.92;48.03;101001.19;5055229;28;20048;-42
2022/09/16 04:51:37;;;;;;;3.13;1.30;;;;;;;22.94;48.11;101003.75;5070436;27;20485;-41
2022/09/16 04:54:02;;;;;;;2.00;0.93;;;;;;;22.92;47.82;101003.88;5054561;28;20024;-43
2022/09/16 04:56:30;;;;;;;2.20;1.20;;;;;;;22.92;48.10;100995.78;5037694;28;20047;-42
2022/09/16 04:58:59;;;;;;;3.72;0.93;;;;;;;22.92;48.07;100999.31;5055534;28;20029;-44
2022/09/16 05:01:27;;;;;;;4.22;1.35;;;;;;;22.91;48.08;101011.13;5055592;28;20032;-43
2022/09/16 05:03:57;;;;;;;1.88;1.08;;;;;;;22.92;48.24;101012.84;5055710;28;20166;-42
2022/09/16 05:06:25;;;;;;;1.95;0.90;;;;;;;22.93;48.04;101005.59;5054476;28;20659;-42
2022/09/16 05:08:53;;;;;;;2.17;0.90;;;;;;;22.90;48.32;101009.44;5054854;28;20082;-44
2022/09/16 05:11:21;;;;;;;2.08;1.08;;;;;;;22.92;48.31;101012.00;5055254;28;20043;-42
2022/09/16 05:13:47;;;;;;;1.92;0.95;;;;;;;22.92;48.24;101012.84;5054544;28;20457;-42
2022/09/16 05:16:14;;;;;;;2.00;1.00;;;;;;;22.92;48.26;101007.44;5054779;28;20047;-42
2022/09/16 05:18:41;;;;;;;2.47;1.10;;;;;;;22.91;48.17;101011.13;5053935;28;20066;-43
2022/09/16 05:21:10;;;;;;;4.20;1.20;;;;;;;22.91;48.19;101015.69;5054232;28;20039;-44
2022/09/16 05:23:36;;;;;;;3.30;1.00;;;;;;;22.89;48.44;101007.72;5054962;28;20040;-43
2022/09/16 05:26:11;;;;;;;3.13;1.20;;;;;;;22.87;48.41;101008.88;5035808;28;20502;-42
2022/09/16 05:28:37;;;;;;;2.65;1.20;;;;;;;22.87;48.27;101004.31;5054778;28;20024;-43
2022/09/16 05:31:19;;;;;;;3.40;1.05;;;;;;;22.87;48.01;101011.56;5068700;27;21617;-43
2022/09/16 05:33:52;;;;;;;2.47;1.15;;;;;;;22.90;48.26;101014.84;5054338;28;20080;-42
2022/09/16 05:36:18;;;;;;;2.42;0.98;;;;;;;22.87;48.23;101020.50;5054914;28;20072;-42
2022/09/16 05:38:44;;;;;;;1.30;0.98;;;;;;;22.90;48.11;101014.84;5049696;28;20036;-44
2022/09/16 05:41:10;;;;;;;2.13;0.90;;;;;;;22.91;48.12;101040.00;5053030;28;20047;-44
2022/09/16 05:43:36;;;;;;;2.00;0.88;;;;;;;22.90;48.26;101041.84;5052726;28;20238;-43
2022/09/16 05:46:03;;;;;;;3.92;1.40;;;;;;;22.91;48.13;101024.63;5054957;28;20353;-43
2022/09/16 05:48:29;;;;;;;1.80;0.95;;;;;;;22.90;48.09;101025.66;5053739;28;20560;-43
2022/09/16 05:51:05;;;;;;;2.40;1.13;;;;;;;22.93;47.85;101035.31;5054324;28;20032;-43
2022/09/16 05:53:33;;;;;;;3.80;1.38;;;;;;;22.91;48.12;101021.09;5052580;28;20569;-44
2022/09/16 05:56:05;;;;;;;2.35;1.08;;;;;;;22.91;47.93;101053.50;5054942;28;20028;-42
2022/09/16 05:58:32;;;;;;;3.03;1.27;;;;;;;22.89;47.82;101060.88;5054108;28;20736;-44
2022/09/16 06:01:09;;;;;;;2.88;0.90;;;;;;;22.88;47.93;101073.53;5053834;28;20071;-44
2022/09/16 06:03:36;;;;;;;2.65;1.15;;;;;;;22.89;47.91;101069.84;5054877;28;20058;-43
2022/09/16 06:06:19;;;;;;;2.85;0.90;;;;;;;22.87;47.75;101054.78;5054032;28;20039;-42
2022/09/16 06:08:45;;;;;;;2.05;1.15;;;;;;;22.89;47.81;101079.78;5054938;28;20484;-43
2022/09/16 06:11:10;;;;;;;2.60;1.17;;;;;;;22.90;47.64;101059.88;5054322;28;20035;-42
2022/09/16 06:13:37;;;;;;;3.25;1.20;;;;;;;22.87;47.78;101052.91;5054587;28;20269;-42
2022/09/16 06:16:04;;;;;;;3.40;1.00;;;;;;;22.89;47.55;101050.94;5054597;28;20458;-44
2022/09/16 06:18:30;;;;;;;2.50;1.00;;;;;;;22.88;47.71;101051.09;5055414;28;20521;-43
2022/09/16 06:20:56;;;;;;;1.88;1.00;;;;;;;22.88;47.72;101048.38;5053505;28;20527;-44
2022/09/16 06:23:22;;;;;;;2.60;1.00;;;;;;;22.87;47.75;101046.69;5054317;28;20358;-43
2022/09/16 06:25:48;;;;;;;1.95;1.08;;;;;;;22.88;47.62;101048.38;5054707;28;20032;-44
2022/09/16 06:28:14;;;;;;;2.05;0.90;;;;;;;22.90;47.51;101051.78;5054293;28;20134;-42
2022/09/16 06:30:40;;;;;;;1.90;0.90;;;;;;;22.86;47.76;101044.97;5054396;28;20098;-43
2022/09/16 06:33:06;;;;;;;2.72;1.10;;;;;;;22.84;47.53;101044.25;5054295;28;20033;-43
2022/09/16 06:35:33;;;;;;;2.97;1.10;;;;;;;22.82;47.50;101043.56;5053768;28;20055;-41
2022/09/16 06:37:58;;;;;;;1.63;0.90;;;;;;;22.80;47.71;101050.94;5052075;28;20112;-42
2022/09/16 06:40:24;;;;;;;4.82;1.20;;;;;;;22.82;47.90;101046.25;5053882;28;20586;-43
2022/09/16 06:42:53;;;;;;;4.18;1.15;;;;;;;22.82;47.57;101049.81;5068239;28;20031;-43
2022/09/16 06:45:18;;;;;;;2.15;1.00;;;;;;;22.81;47.49;101047.25;5058555;28;20115;-42
2022/09/16 06:47:44;;;;;;;2.00;1.00;;;;;;;22.81;47.39;101041.84;5038073;28;20028;-41
2022/09/16 06:50:09;;;;;;;2.75;1.08;;;;;;;22.81;47.43;101056.19;5039626;28;20028;-43
2022/09/16 06:52:35;;;;;;;2.30;1.08;;;;;;;22.78;47.34;101045.69;5038520;28;20036;-42
2022/09/16 06:55:00;;;;;;;2.47;1.10;;;;;;;22.79;47.38;101038.44;5058411;28;20033;-41
2022/09/16 06:57:25;;;;;;;2.75;1.00;;;;;;;22.79;47.33;101041.13;5057803;28;20032;-42
2022/09/16 06:59:51;;;;;;;2.72;0.95;;;;;;;22.79;47.43;101035.72;5072845;27;20044;-42
2022/09/16 07:02:18;;;;;;;2.10;0.90;;;;;;;22.79;47.33;101038.44;5057454;28;20059;-42
2022/09/16 07:04:44;;;;;;;1.27;1.00;;;;;;;22.81;47.53;101028.34;5057073;28;20420;-41
2022/09/16 07:07:10;;;;;;;3.30;0.95;;;;;;;22.80;47.33;101022.09;5057950;28;20032;-43
2022/09/16 07:09:36;;;;;;;3.47;1.10;;;;;;;22.79;47.34;101023.09;5057274;28;20033;-43
2022/09/16 07:12:02;;;;;;;3.60;1.10;;;;;;;22.75;47.49;101027.94;5058509;28;20040;-43
2022/09/16 07:14:28;;;;;;;2.42;1.10;;;;;;;22.78;47.59;101031.34;5057546;28;20628;-41
2022/09/16 07:16:53;;;;;;;2.65;0.90;;;;;;;22.77;47.38;101040.44;5057751;28;20028;-41
2022/09/16 07:19:19;;;;;;;2.65;1.02;;;;;;;22.79;47.32;101050.09;5057067;28;20036;-43
2022/09/16 07:21:45;;;;;;;3.30;0.98;;;;;;;22.81;47.33;101047.25;5057408;28;20036;-45
2022/09/16 07:24:12;;;;;;;4.22;1.13;;;;;;;22.83;47.45;101047.97;5057603;28;20366;-44
2022/09/16 07:26:39;;;;;;;2.55;1.08;;;;;;;22.83;47.31;101043.41;5056319;28;20140;-43
2022/09/16 07:29:06;;;;;;;2.50;0.85;;;;;;;22.80;47.38;101042.84;5057350;28;20069;-43
2022/09/16 07:31:34;;;;;;;2.97;1.02;;;;;;;22.80;47.24;101056.34;5071538;27;20036;-43
2022/09/16 07:34:00;;;;;;;2.28;0.70;;;;;;;22.82;47.37;101070.56;5056459;28;20123;-43
2022/09/16 07:36:28;;;;;;;2.13;1.02;;;;;;;22.86;47.21;101074.66;5057338;28;20451;-43
2022/09/16 07:38:57;;;;;;;2.47;1.00;;;;;;;22.87;47.31;101068.28;5056824;28;20504;-43
2022/09/16 07:41:25;;;;;;;5.30;1.10;;;;;;;22.83;47.30;101065.00;5057471;28;20154;-42
2022/09/16 07:43:52;;;;;;;3.60;1.38;;;;;;;22.82;47.23;101048.97;5056777;28;20033;-41
2022/09/16 07:46:18;;;;;;;2.53;1.00;;;;;;;22.84;47.15;101049.66;5056510;28;20024;-43
2022/09/16 07:48:45;;;;;;;3.65;1.05;;;;;;;22.84;47.09;101055.91;5056856;28;20058;-43
2022/09/16 07:51:14;;;;;;;3.80;1.13;;;;;;;22.84;47.16;101050.53;5057795;28;20042;-45
2022/09/16 07:53:40;;;;;;;2.75;1.17;;;;;;;22.85;47.20;101054.94;5054977;28;20510;-45
2022/09/16 07:56:09;;;;;;;2.83;1.10;;;;;;;22.82;47.51;101060.59;5057549;28;20036;-45
2022/09/16 07:58:35;;;;;;;2.33;1.02;;;;;;;22.85;47.48;101073.81;5057098;28;20039;-43
2022/09/16 08:01:01;;;;;;;1.60;0.80;;;;;;;22.85;47.14;101079.22;5057158;28;20040;-44
2022/09/16 08:03:27;;;;;;;1.58;0.88;;;;;;;22.86;47.35;101080.06;5057504;28;20133;-45
2022/09/16 08:05:59;;;;;;;3.63;1.30;;;;;;;22.89;47.11;101091.44;5057304;28;20650;-45
2022/09/16 08:08:24;;;;;;;2.28;0.75;;;;;;;22.95;46.98;101089.16;5056815;28;20027;-45
2022/09/16 08:10:54;;;;;;;2.30;1.20;;;;;;;22.98;46.96;101094.25;5057077;28;20040;-45
2022/09/16 08:13:19;;;;;;;1.77;0.93;;;;;;;23.00;47.13;101103.91;5055107;28;20408;-41
2022/09/16 08:15:45;;;;;;;2.28;1.10;;;;;;;22.99;46.55;101102.25;5057035;28;20066;-40
2022/09/16 08:18:10;;;;;;;4.60;1.17;;;;;;;22.99;46.40;101104.06;5038303;28;20036;-41
2022/09/16 08:20:36;;;;;;;2.20;1.10;;;;;;;23.00;46.72;101108.47;5055881;28;20657;-43
2022/09/16 08:23:01;;;;;;;3.78;1.20;;;;;;;22.98;46.67;101110.47;5056069;28;20057;-44
2022/09/16 08:25:27;;;;;;;3.50;1.08;;;;;;;22.95;46.88;101098.09;5056974;28;20748;-44
2022/09/16 08:27:52;;;;;;;3.80;1.17;;;;;;;22.94;46.90;101100.94;5055916;28;20389;-44
2022/09/16 08:30:18;;;;;;;2.58;1.08;;;;;;;22.92;46.97;101103.81;5057555;28;20115;-45
2022/09/16 08:32:43;;;;;;;2.65;0.90;;;;;;;22.91;46.85;101104.78;5070578;27;20176;-42
2022/09/16 08:35:08;;;;;;;2.28;0.90;;;;;;;22.90;46.92;101108.47;5057045;28;20105;-42
2022/09/16 08:37:34;;;;;;;3.03;1.02;;;;;;;22.91;46.63;101112.91;5056539;28;20043;-41
2022/09/16 08:40:00;;;;;;;2.63;1.02;;;;;;;22.95;46.89;101146.72;5056495;28;20440;-42
2022/09/16 08:42:40;;;;;;;3.22;1.10;;;;;;;22.95;46.68;101143.16;5055790;28;20493;-42
2022/09/16 08:45:25;;;;;;;2.05;1.10;;;;;;;22.97;46.89;101162.75;5057130;28;20432;-41
2022/09/16 08:48:23;;;;;;;2.72;1.10;;;;;;;23.00;46.92;101159.81;5051065;28;20442;-43
2022/09/16 08:50:50;;;;;;;4.38;1.23;;;;;;;23.04;46.70;101145.00;5056098;28;20037;-42
2022/09/16 08:54:05;;;;;;;3.50;1.20;;;;;;;23.02;46.57;101133.50;5055416;28;20033;-41
2022/09/16 08:56:36;;;;;;;2.83;1.20;;;;;;;22.99;46.70;101131.06;5030621;28;20037;-42
2022/09/16 08:59:09;;;;;;;2.60;1.00;;;;;;;22.99;46.93;101133.78;5030918;28;20033;-42
2022/09/16 09:01:42;;;;;;;2.55;1.05;;;;;;;22.99;46.72;101140.06;5026767;28;20048;-41
2022/09/16 09:04:07;;;;;;;1.60;0.93;;;;;;;23.00;46.65;101144.44;5057074;28;20035;-42
2022/09/16 09:06:48;;;;;;;2.45;0.98;;;;;;;23.02;46.70;101138.91;5052928;28;20491;-42
2022/09/16 09:09:19;;;;;;;3.30;1.03;;;;;;;23.03;46.55;101143.28;5056356;28;20036;-43
2022/09/16 09:12:09;;;;;;;2.75;1.02;;;;;;;23.08;46.17;101146.41;5056010;28;20073;-43
2022/09/16 09:14:52;;;;;;;3.03;1.00;;;;;;;23.06;46.54;101154.66;5055431;28;20972;-43
2022/09/16 09:17:36;;;;;;;3.63;1.30;;;;;;;23.08;46.44;101141.88;5054676;28;20037;-43
2022/09/16 09:20:28;;;;;;;3.92;1.20;;;;;;;23.11;46.68;101147.97;5054536;28;20027;-44
2022/09/16 09:23:16;;;;;;;3.53;1.20;;;;;;;23.10;46.41;101147.13;5054978;28;20524;-45
2022/09/16 09:26:05;;;;;;;3.97;1.10;;;;;;;23.11;46.36;101145.28;5054368;28;20046;-44
2022/09/16 09:29:08;;;;;;;6.22;1.23;;;;;;;23.05;46.87;101147.56;5045039;28;20085;-39
2022/09/16 09:32:03;;;;;;;3.67;1.33;;;;;;;23.08;47.05;101152.69;5051209;28;20119;-41
2022/09/16 09:34:51;;;;;;;5.72;1.40;;;;;;;23.13;47.04;101162.22;5049924;28;20131;-42
2022/09/16 09:37:38;;;;;;;3.15;1.10;;;;;;;23.16;47.65;101154.72;5016810;28;20045;-42
2022/09/16 09:40:10;;;;;;;4.55;1.30;;;;;;;23.14;47.42;101156.66;5049072;28;20055;-43
2022/09/16 09:42:42;;;;;;;4.53;1.30;;;;;;;23.14;47.25;101158.50;5048288;28;20119;-43
2022/09/16 09:45:14;;;;;;;5.97;1.33;;;;;;;23.20;47.19;101158.81;5048460;28;20024;-41
2022/09/16 09:47:46;;;;;;;2.83;1.10;;;;;;;23.25;47.10;101147.59;5046412;28;20064;-42
2022/09/16 09:50:23;;;;;;;2.83;1.08;;;;;;;23.29;47.04;101145.44;5046887;28;20530;-46
2022/09/16 09:53:05;;;;;;;3.67;1.17;;;;;;;23.30;46.95;101139.91;5048486;28;20043;-43
2022/09/16 09:55:33;;;;;;;5.70;1.27;;;;;;;23.33;46.87;101142.31;5047935;27;20028;-41
2022/09/16 09:58:09;;;;;;;3.00;1.10;;;;;;;23.37;47.13;101137.47;5046960;28;20032;-41
2022/09/16 10:00:34;;;;;;;4.55;1.40;;;;;;;23.38;46.88;101144.59;5047728;28;20032;-42
2022/09/16 10:03:04;;;;;;;3.25;1.00;;;;;;;23.42;46.92;101164.91;5041645;28;20035;-42
2022/09/16 10:05:30;;;;;;;2.72;0.90;;;;;;;23.49;47.03;101151.66;5047749;28;20857;-32
2022/09/16 10:08:01;;;;;;;2.78;0.95;;;;;;;23.55;47.06;101138.41;5047089;28;20024;-38
2022/09/16 10:10:31;;;;;;;1.83;1.05;;;;;;;23.58;46.89;101136.41;5048999;28;20154;-49
2022/09/16 10:13:09;;;;;;;1.73;1.03;;;;;;;23.59;46.89;101149.78;5049227;28;20086;-36
2022/09/16 10:15:35;;;;;;;3.25;0.93;;;;;;;23.61;46.90;101136.09;5048011;28;20036;-41
2022/09/16 10:18:10;;;;;;;3.28;0.95;;;;;;;23.65;46.71;101132.13;5046647;28;20028;-42
2022/09/16 10:20:38;;;;;;;2.92;1.17;;;;;;;23.70;46.41;101141.50;5049055;28;20110;-41
2022/09/16 10:23:09;;;;;;;4.13;1.00;;;;;;;23.71;46.64;101132.38;5064017;27;20028;-47
2022/09/16 10:25:35;;;;;;;6.03;1.45;;;;;;;23.65;46.59;101138.38;5049289;28;20036;-46
2022/09/16 10:28:04;;;;;;;3.25;1.00;;;;;;;23.61;46.49;101134.28;5048088;28;20033;-47
2022/09/16 10:30:45;;;;;;;1.98;0.70;;;;;;;23.60;46.75;101129.03;5049862;28;21490;-46
2022/09/16 10:33:23;;;;;;;;;;;;;;;23.62;46.57;101138.69;5048766;28;20349;-46
2022/09/16 10:36:00;;;;;;;1.58;0.88;;;;;;;23.64;46.27;101125.84;5032313;28;20616;-41
2022/09/16 10:38:39;;;;;;;4.50;1.10;;;;;;;23.68;46.74;101131.81;5047494;28;20031;-37
2022/09/16 10:41:14;;;;;;;3.05;1.00;;;;;;;23.68;47.00;101123.72;5046671;28;20043;-41
2022/09/16 10:43:50;;;;;;;2.80;0.95;;;;;;;23.72;46.74;101130.53;5046756;28;20032;-39
2022/09/16 10:46:20;;;;;;;2.17;0.93;;;;;;;23.73;46.81;101119.59;5048136;28;20039;-39
2022/09/16 10:48:48;;;;;;;1.60;0.95;;;;;;;23.75;47.01;101124.84;5047735;28;20353;-46
2022/09/16 10:51:28;;;;;;;5.70;1.20;;;;;;;23.77;47.13;101124.69;5049270;28;20028;-46
2022/09/16 10:53:57;;;;;;;3.60;1.10;;;;;;;23.81;46.86;101137.78;5047917;28;20657;-43
2022/09/16 10:56:28;;;;;;;5.57;1.20;;;;;;;23.87;46.93;101141.72;5049879;28;21472;-49
2022/09/16 10:59:05;;;;;;;;;;;;;;;23.91;46.62;101137.75;5050134;28;20027;-42
2022/09/16 11:01:36;;;;;;;2.92;0.85;;;;;;;23.94;46.79;101132.06;5048757;28;20086;-42
2022/09/16 11:04:19;;;;;;;2.38;0.80;;;;;;;23.96;46.31;101137.31;5049547;28;20044;-42
2022/09/16 11:07:11;;;;;;;3.10;1.00;;;;;;;24.01;46.27;101143.97;5049021;28;20368;-35
2022/09/16 11:09:51;;;;;;;6.05;1.33;;;;;;;24.07;45.87;101137.13;5006245;28;20350;-35
2022/09/16 11:12:38;;;;;;;3.90;1.20;;;;;;;24.15;46.04;101150.72;5049256;28;20207;-36
2022/09/16 11:15:41;;;;;;;3.35;1.40;;;;;;;24.19;45.99;101145.88;5049254;28;20032;-36
2022/09/16 11:18:31;;;;;;;4.82;1.70;;;;;;;24.15;45.88;101150.72;5048423;28;20408;-35
2022/09/16 11:21:14;;;;;;;9.55;2.70;;;;;;;24.19;45.43;101141.28;5048652;28;20610;-35
2022/09/16 11:24:09;;;;;;;9.05;2.47;;;;;;;24.19;45.70;101151.28;5050283;28;20043;-36
2022/09/16 11:26:50;;;;;;;6.63;2.17;;;;;;;24.29;45.23;101154.78;5047989;28;20124;-35
2022/09/16 11:29:18;;;;;;;;;;;;;;;24.33;45.46;101164.28;5035544;28;20023;-47
2022/09/16 11:32:18;;;;;;;14.80;2.78;;;;;;;24.32;45.21;101159.03;5053307;28;19924;-42
2022/09/16 11:34:53;;;;;;;18.80;4.55;;;;;;;24.34;44.67;101167.88;5050803;28;20048;-35
2022/09/16 11:37:54;;;;;;;10.88;2.45;;;;;;;24.29;44.86;101168.31;5053649;28;20025;-41
2022/09/16 11:40:19;;;;;;;17.15;4.22;;;;;;;24.27;45.09;101170.34;5050620;28;20520;-40
2022/09/16 11:42:50;;;;;;;17.73;4.47;;;;;;;24.28;45.02;101176.59;5053732;28;20063;-43
2022/09/16 11:45:15;;;;;;;;;;;;;;;24.30;45.02;101167.31;5052584;28;20035;-43
2022/09/16 11:48:11;;;;;;;18.10;4.57;;;;;;;24.28;44.57;101169.31;5052843;28;19935;-45
2022/09/16 11:50:51;;;;;;;16.63;4.15;;;;;;;24.31;45.18;101162.75;5052277;28;20508;-47
2022/09/16 11:53:31;;;;;;;15.77;4.45;;;;;;;24.28;44.88;101169.31;5052268;28;20308;-35